Meteo Giornale » Osservazioni meteo Stati Uniti (USA) » Ames Ames
ore: 12:53 - Osservazioni Meteo Ames Ames
Lat. 41° 59' N Lon. 93° 37' W Alt. 288 metri s.l.m.
32 °C
Sereno
Temp. 24 Ore
21 °C
33 °C
Sud/Sud-Ovest
9.3 Km/h
Dew point 22 °C
Umidità 55 %
Visibilità 10 Km
Il sole sorge alle ore 06:40
Il sole tramonta alle ore 19:48
| Data e Ora | Cielo e Fenomeni | T °C | DP °C | Um. % | Pres. hPa | Vis. km | Vento km/h | |
|---|---|---|---|---|---|---|---|---|
| Oggi h: 12:53 | Sereno | 32 | 22 | 55 | 1014 | 10 | S/SO 9.3 | |
| Oggi h: 11:53 | Poco Nuvoloso | 32 | 22 | 55 | 1014 | 10 | S 11.1 | |
| Oggi h: 10:53 | Sereno | 31 | 22 | 58 | 1014 | 10 | N 7.4 | |
| Oggi h: 09:53 | Sereno | 28 | 23 | 74 | 1014 | 10 | S/SE 7.4 | |
| Oggi h: 08:53 | Foschia | 24 | 24 | 100 | 1014 | 10 | N 5.5 | |
| Oggi h: 07:53 | Foschia | 23 | 23 | 100 | 1014 | 6 | N 0 | |
| Oggi h: 07:47 | Foschia | 23 | 23 | 100 | 1014 | 5 | N 5.5 | |
| Oggi h: 07:28 | Foschia | 22 | 22 | 100 | 1014 | 3 | N 5.5 | |
| Oggi h: 07:17 | Foschia | 22 | 22 | 100 | 1014 | 2 | N 0 | |
| Oggi h: 06:53 | Nebbia | 22 | 22 | 100 | 1014 | 2 | N 0 | |
| Oggi h: 05:53 | Nebbia | 21 | 21 | 100 | 1014 | 2 | N 0 | |
| Oggi h: 04:53 | Nebbia | 22 | 22 | 100 | 1014 | 2 | N 0 | |
| Oggi h: 03:59 | Nebbia | 22 | 22 | 100 | 1014 | 2 | S/SE 7.4 | |
| Oggi h: 03:53 | Foschia | 22 | 22 | 100 | 1014 | 2 | N 0 | |
| Oggi h: 03:49 | Foschia | 22 | 22 | 100 | 1014 | 5 | N 0 | |
| Oggi h: 03:40 | Foschia | 22 | 21 | 94 | 1014 | 2 | N 0 | |
| Oggi h: 03:26 | Foschia | 22 | 22 | 100 | 1014 | 8 | N 0 | |
| Oggi h: 02:53 | Foschia | 22 | 22 | 100 | 1014 | 8 | N 0 | |
| Oggi h: 02:46 | Foschia | 22 | 22 | 100 | 1014 | 6 | N 0 | |
| Oggi h: 02:38 | Foschia | 22 | 22 | 100 | 1014 | 2 | N 0 | |
| Oggi h: 02:32 | Foschia | 21 | 21 | 100 | 1014 | 5 | N 0 | |
| Oggi h: 02:24 | Foschia | 22 | 22 | 100 | 1014 | 2 | N 0 | |
| Oggi h: 02:05 | Foschia | 22 | 22 | 100 | 1014 | 5 | N 0 | |
| Oggi h: 01:53 | Foschia | 22 | 22 | 100 | 1014 | 2 | N 0 | |
| Oggi h: 01:50 | Foschia | 22 | 22 | 100 | 1014 | 2 | N 0 | |
| Oggi h: 01:43 | Foschia | 22 | 22 | 100 | 1014 | 8 | N 0 | |
| Oggi h: 01:33 | Foschia | 23 | 22 | 94 | 1014 | 3 | N 0 | |
| Oggi h: 00:53 | Foschia | 23 | 22 | 94 | 1014 | 10 | N 0 | |
| Ieri h: 23:53 | Foschia | 23 | 23 | 100 | 1014 | 8 | N 0 | |
| Ieri h: 22:53 | Foschia | 24 | 23 | 94 | 1013 | 8 | N 0 | |
| Ieri h: 21:53 | Sereno | 25 | 24 | 94 | 1013 | 10 | O/SO 9.3 | |
| Ieri h: 20:53 | Sereno | 26 | 24 | 88 | 1013 | 10 | N 5.5 | |
| Ieri h: 19:53 | Sereno | 27 | 25 | 88 | 1012 | 10 | S/SO 9.3 | |
| Ieri h: 18:53 | Poco Nuvoloso | 29 | 26 | 83 | 1012 | 10 | N 5.5 | |
| Ieri h: 17:53 | Sereno | 32 | 25 | 66 | 1012 | 10 | S/SO 11.1 | |
| Ieri h: 16:53 | Sereno | 32 | 24 | 62 | 1012 | 10 | S/SO 14.8 | |
| Ieri h: 15:53 | Sereno | 33 | 23 | 55 | 1012 | 10 | SO 13 | |
| Ieri h: 14:53 | Sereno | 33 | 24 | 59 | 1012 | 10 | SO 14.8 | |
| Ieri h: 13:53 | Sereno | 32 | 24 | 62 | 1012 | 10 | S/SO 14.8 | |



